Terminal Aerodrome Forecast
Issued by NWS

Home | Current Version | Previous Version | Text Only | Print | Product List | Glossary On
Versions: 1 2 3 4 5 6 7 8 9 10 11 12 13 14 15 16 17 18 19 20 21 22 23 24 25 26 27 28
000
FTUS41 KBTV 051120
TAFSLK
TAF
KSLK 051120Z 0512/0612 25006KT P6SM BKN020 BKN120
     FM051300 25006KT P6SM BKN035
     FM051500 27010G17KT P6SM VCSH BKN060
     FM051700 28008G18KT 6SM SHRA BKN050
     FM052300 VRB04KT P6SM BKN050=

USA.gov is the U.S. government's official web portal to all federal, state and local government web resources and services.